createdAt,value
2019-01-04T00:00:12.411Z,8.47
2019-01-04T00:02:40.903Z,8.77
2019-01-04T00:05:10.091Z,9.20
2019-01-04T00:07:38.600Z,8.37
2019-01-04T00:10:07.102Z,9.70
2019-01-04T00:12:35.676Z,10.87
2019-01-04T00:15:04.421Z,10.27
2019-01-04T00:17:33.033Z,10.77
2019-01-04T00:20:01.516Z,11.37
2019-01-04T00:22:30.006Z,11.23
2019-01-04T00:24:58.539Z,10.73
2019-01-04T00:27:27.061Z,10.13
2019-01-04T00:29:55.576Z,11.03
2019-01-04T00:32:24.072Z,9.63
2019-01-04T00:34:52.696Z,9.93
2019-01-04T00:37:21.187Z,10.10
2019-01-04T00:39:49.716Z,10.67
2019-01-04T00:42:18.311Z,11.80
2019-01-04T00:44:46.836Z,10.30
2019-01-04T00:47:15.357Z,10.37
2019-01-04T00:49:43.882Z,10.97
2019-01-04T00:52:12.428Z,10.60
2019-01-04T00:54:40.933Z,10.57
2019-01-04T00:57:30.451Z,9.67
2019-01-04T01:00:29.275Z,10.43
2019-01-04T01:03:29.321Z,9.83
2019-01-04T01:06:17.407Z,9.57
2019-01-04T01:08:54.972Z,9.93
2019-01-04T01:11:51.987Z,9.43
2019-01-04T01:14:52.262Z,10.47
2019-01-04T01:17:49.431Z,10.13
2019-01-04T01:20:33.085Z,11.27
2019-01-04T01:23:10.366Z,10.77
2019-01-04T01:25:57.049Z,11.20
2019-01-04T01:28:37.496Z,11.73
2019-01-04T01:31:15.241Z,10.87
2019-01-04T01:34:01.850Z,10.03
2019-01-04T01:36:36.406Z,9.40
2019-01-04T01:39:33.422Z,9.83
2019-01-04T01:42:24.618Z,10.37
2019-01-04T01:45:21.716Z,9.73
2019-01-04T01:47:50.238Z,9.43
2019-01-04T01:50:39.690Z,9.87
2019-01-04T01:53:08.197Z,9.87
2019-01-04T01:55:36.703Z,9.37
2019-01-04T01:58:05.261Z,9.10
2019-01-04T02:00:34.042Z,10.57
2019-01-04T02:03:02.715Z,10.23
2019-01-04T02:05:31.205Z,10.10
2019-01-04T02:07:59.747Z,10.07
2019-01-04T02:10:28.348Z,10.07
2019-01-04T02:12:56.858Z,10.13
2019-01-04T02:15:25.346Z,10.70
2019-01-04T02:17:53.947Z,11.23
2019-01-04T02:20:22.477Z,11.70
2019-01-04T02:22:50.991Z,11.30
2019-01-04T02:25:19.490Z,11.27
2019-01-04T02:27:48.026Z,11.03
2019-01-04T02:30:16.642Z,10.70
2019-01-04T02:32:45.140Z,12.77
2019-01-04T02:35:13.798Z,11.60
2019-01-04T02:37:42.348Z,11.57
2019-01-04T02:40:10.841Z,12.33
2019-01-04T02:42:39.460Z,13.60
2019-01-04T02:45:07.970Z,13.80
2019-01-04T02:47:36.482Z,13.80
2019-01-04T02:50:05.666Z,13.60
2019-01-04T02:52:34.356Z,13.43
2019-01-04T02:55:02.847Z,13.60
2019-01-04T02:57:31.378Z,12.97
2019-01-04T03:00:00.084Z,13.47
2019-01-04T03:02:28.631Z,14.73
2019-01-04T03:04:57.158Z,13.37
2019-01-04T03:07:25.740Z,14.37
2019-01-04T03:09:54.251Z,14.17
2019-01-04T03:12:22.727Z,12.83
2019-01-04T03:14:51.246Z,14.43
2019-01-04T03:17:19.810Z,14.53
2019-01-04T03:19:48.411Z,15.67
2019-01-04T03:22:16.917Z,15.00
2019-01-04T03:24:45.474Z,14.97
2019-01-04T03:27:14.097Z,16.07
2019-01-04T03:29:42.582Z,15.17
2019-01-04T03:32:11.223Z,15.40
2019-01-04T03:34:39.800Z,14.33
2019-01-04T03:37:08.324Z,15.00
2019-01-04T03:39:36.832Z,15.20
2019-01-04T03:42:05.352Z,15.03
2019-01-04T03:44:33.845Z,15.23
2019-01-04T03:47:02.325Z,15.60
2019-01-04T03:49:30.926Z,15.67
2019-01-04T03:51:59.406Z,14.57
2019-01-04T03:54:27.927Z,16.20
2019-01-04T03:56:56.571Z,14.77
2019-01-04T03:59:25.159Z,14.27
2019-01-04T04:01:53.667Z,15.00
2019-01-04T04:04:22.159Z,15.40
2019-01-04T04:06:50.651Z,16.03
2019-01-04T04:09:19.158Z,15.47
2019-01-04T04:11:47.677Z,16.20
2019-01-04T04:14:16.182Z,14.97
2019-01-04T04:16:44.711Z,15.73
2019-01-04T04:19:13.251Z,17.73
2019-01-04T04:21:41.794Z,16.53
2019-01-04T04:24:10.285Z,17.17
2019-01-04T04:26:38.791Z,17.17
2019-01-04T04:29:07.292Z,17.53
2019-01-04T04:31:35.905Z,15.47
2019-01-04T04:34:04.415Z,17.37
2019-01-04T04:36:32.906Z,18.13
2019-01-04T04:39:01.402Z,19.03
2019-01-04T04:41:29.916Z,18.33
2019-01-04T04:43:58.409Z,18.30
2019-01-04T04:46:26.928Z,17.67
2019-01-04T04:48:55.451Z,18.80
2019-01-04T04:51:23.966Z,17.87
2019-01-04T04:53:52.455Z,18.97
2019-01-04T04:56:20.965Z,16.47
2019-01-04T04:58:49.602Z,16.83
2019-01-04T05:01:18.105Z,14.80
2019-01-04T05:03:46.598Z,15.50
2019-01-04T05:06:15.114Z,16.80
2019-01-04T05:08:43.587Z,15.53
2019-01-04T05:11:12.115Z,16.00
2019-01-04T05:13:40.601Z,15.27
2019-01-04T05:16:09.086Z,15.17
2019-01-04T05:18:37.610Z,15.77
2019-01-04T05:21:06.111Z,15.20
2019-01-04T05:23:34.641Z,15.67
2019-01-04T05:26:03.277Z,15.60
2019-01-04T05:28:31.785Z,14.97
2019-01-04T05:31:00.285Z,16.03
2019-01-04T05:33:28.827Z,15.93
2019-01-04T05:35:57.326Z,16.10
2019-01-04T05:38:25.831Z,16.17
2019-01-04T05:40:54.324Z,15.00
2019-01-04T05:43:22.851Z,15.70
2019-01-04T05:45:51.445Z,15.37
2019-01-04T05:48:19.972Z,15.27
2019-01-04T05:50:48.524Z,15.80
2019-01-04T05:53:17.154Z,14.77
2019-01-04T05:55:45.663Z,14.37
2019-01-04T05:58:14.249Z,13.40
2019-01-04T06:00:42.752Z,14.50
2019-01-04T06:03:11.285Z,14.07
2019-01-04T06:05:39.925Z,14.20
2019-01-04T06:08:08.406Z,14.40
2019-01-04T06:10:36.940Z,13.13
2019-01-04T06:13:05.416Z,12.93
2019-01-04T06:15:33.933Z,14.20
2019-01-04T06:18:02.545Z,13.00
2019-01-04T06:20:31.051Z,14.10
2019-01-04T06:22:59.599Z,13.10
2019-01-04T06:25:28.101Z,13.90
2019-01-04T06:27:56.612Z,13.63
2019-01-04T06:30:25.210Z,13.67
2019-01-04T06:32:53.755Z,14.30
2019-01-04T06:35:22.236Z,14.73
2019-01-04T06:37:50.777Z,14.97
2019-01-04T06:40:19.286Z,14.73
2019-01-04T06:42:47.825Z,15.03
2019-01-04T06:45:16.356Z,15.53
2019-01-04T06:47:44.922Z,15.80
2019-01-04T06:50:13.410Z,14.53
2019-01-04T06:52:41.935Z,14.70
2019-01-04T06:55:22.525Z,15.00
2019-01-04T06:57:51.125Z,15.43
2019-01-04T07:00:19.627Z,14.73
2019-01-04T07:02:48.126Z,16.33
2019-01-04T07:05:16.656Z,14.10
2019-01-04T07:07:45.135Z,14.30
2019-01-04T07:10:13.631Z,14.87
2019-01-04T07:12:42.154Z,14.47
2019-01-04T07:15:10.626Z,14.27
2019-01-04T07:17:39.142Z,16.23
2019-01-04T07:20:07.700Z,16.07
2019-01-04T07:22:36.285Z,15.73
2019-01-04T07:25:04.876Z,17.63
2019-01-04T07:27:33.475Z,15.20
2019-01-04T07:30:01.982Z,17.33
2019-01-04T07:32:30.555Z,15.93
2019-01-04T07:34:59.105Z,16.17
2019-01-04T07:37:27.626Z,16.40
2019-01-04T07:39:56.122Z,16.03
2019-01-04T07:42:24.662Z,18.67
2019-01-04T07:44:53.164Z,18.10
2019-01-04T07:47:21.862Z,15.97
2019-01-04T07:49:50.420Z,15.70
2019-01-04T07:52:18.907Z,16.00
2019-01-04T07:54:47.482Z,16.00
2019-01-04T07:57:15.994Z,15.80
2019-01-04T07:59:44.597Z,16.37
2019-01-04T08:02:32.850Z,16.93
2019-01-04T08:05:01.491Z,15.63
2019-01-04T08:07:29.991Z,17.97
2019-01-04T08:09:58.514Z,17.90
2019-01-04T08:12:27.082Z,17.03
2019-01-04T08:14:55.615Z,16.27
2019-01-04T08:17:24.105Z,17.27
2019-01-04T08:19:52.621Z,16.90
2019-01-04T08:22:21.146Z,15.07
2019-01-04T08:24:49.664Z,16.23
2019-01-04T08:27:18.145Z,15.43
2019-01-04T08:29:46.792Z,14.13
2019-01-04T08:32:15.286Z,14.37
2019-01-04T08:34:43.792Z,13.77
2019-01-04T08:37:12.337Z,14.57
2019-01-04T08:39:40.830Z,14.63
2019-01-04T08:42:09.346Z,13.83
2019-01-04T08:44:37.832Z,14.77
2019-01-04T08:47:06.522Z,15.10
2019-01-04T08:49:35.086Z,14.73
2019-01-04T08:52:03.565Z,15.40
2019-01-04T08:54:32.239Z,16.10
2019-01-04T08:57:00.742Z,15.10
2019-01-04T08:59:29.257Z,15.20
2019-01-04T09:01:57.765Z,15.30
2019-01-04T09:04:26.285Z,16.20
2019-01-04T09:06:54.880Z,16.07
2019-01-04T09:09:23.383Z,14.90
2019-01-04T09:11:51.997Z,13.77
2019-01-04T09:14:20.521Z,14.03
2019-01-04T09:16:49.005Z,13.37
2019-01-04T09:19:17.497Z,13.67
2019-01-04T09:21:46.015Z,14.00
2019-01-04T09:24:14.598Z,14.63
2019-01-04T09:26:43.300Z,12.73
2019-01-04T09:29:11.787Z,11.60
2019-01-04T09:31:40.287Z,13.20
2019-01-04T09:34:08.807Z,13.13
2019-01-04T09:36:37.364Z,13.27
2019-01-04T09:39:06.972Z,15.50
2019-01-04T09:41:36.764Z,14.60
2019-01-04T09:44:05.287Z,14.83
2019-01-04T09:46:33.788Z,13.00
2019-01-04T09:49:02.325Z,12.70
2019-01-04T09:51:30.861Z,11.97
2019-01-04T09:53:59.510Z,11.57
2019-01-04T09:56:28.150Z,10.37
2019-01-04T09:58:56.687Z,11.27
2019-01-04T10:01:25.171Z,12.23
2019-01-04T10:03:53.685Z,12.20
2019-01-04T10:06:22.175Z,12.47
2019-01-04T10:08:50.689Z,11.00
2019-01-04T10:11:19.195Z,11.00
2019-01-04T10:13:47.732Z,11.27
2019-01-04T10:16:16.221Z,11.77
2019-01-04T10:18:44.742Z,10.83
2019-01-04T10:21:13.256Z,11.77
2019-01-04T10:23:41.885Z,11.40
2019-01-04T10:26:10.367Z,10.83
2019-01-04T10:28:38.877Z,11.60
2019-01-04T10:31:07.537Z,12.47
2019-01-04T10:33:36.130Z,13.60
2019-01-04T10:36:04.685Z,7.43
2019-01-04T10:38:33.307Z,9.60
2019-01-04T10:41:01.804Z,8.20
2019-01-04T10:43:30.327Z,7.80
2019-01-04T10:45:58.860Z,7.33
2019-01-04T10:48:27.364Z,7.60
2019-01-04T10:50:55.904Z,7.27
2019-01-04T10:53:24.395Z,7.63
2019-01-04T10:55:52.954Z,7.13
2019-01-04T10:58:21.472Z,6.93
2019-01-04T11:00:49.985Z,5.60
2019-01-04T11:03:18.532Z,7.47
2019-01-04T11:05:47.015Z,8.37
2019-01-04T11:08:15.532Z,8.53
2019-01-04T11:10:44.062Z,6.73
2019-01-04T11:13:12.567Z,6.70
2019-01-04T11:15:41.087Z,6.03
2019-01-04T11:18:10.036Z,6.70
2019-01-04T11:20:40.990Z,7.87
2019-01-04T11:23:24.592Z,7.70
2019-01-04T11:25:56.045Z,7.40
2019-01-04T11:28:39.540Z,5.80
2019-01-04T11:31:14.166Z,7.27
2019-01-04T11:33:45.626Z,7.60
2019-01-04T11:36:23.350Z,7.07
2019-01-04T11:38:58.111Z,7.10
2019-01-04T11:41:48.056Z,7.53
2019-01-04T11:44:28.504Z,7.63
2019-01-04T11:47:03.160Z,8.77
2019-01-04T11:49:40.621Z,7.40
2019-01-04T11:52:15.261Z,7.00
2019-01-04T11:54:43.759Z,7.23
2019-01-04T11:57:12.258Z,7.23
2019-01-04T11:59:40.844Z,6.10
2019-01-04T12:02:09.381Z,6.57
2019-01-04T12:04:37.987Z,7.03
2019-01-04T12:07:06.608Z,6.87
2019-01-04T12:09:35.089Z,6.47
2019-01-04T12:12:03.602Z,6.27
2019-01-04T12:14:32.248Z,11.60
2019-01-04T12:17:00.767Z,8.90
2019-01-04T12:19:29.267Z,7.10
2019-01-04T12:21:57.899Z,6.73
2019-01-04T12:24:26.400Z,7.00
2019-01-04T12:26:55.009Z,8.70
2019-01-04T12:29:23.496Z,11.43
2019-01-04T12:31:52.043Z,10.33
2019-01-04T12:34:20.614Z,9.93
2019-01-04T12:36:49.106Z,8.87
2019-01-04T12:39:17.691Z,9.10
2019-01-04T12:41:46.273Z,9.80
2019-01-04T12:44:14.779Z,9.73
2019-01-04T12:46:43.461Z,10.07
2019-01-04T12:49:12.078Z,8.63
2019-01-04T12:51:40.616Z,9.33
2019-01-04T12:54:09.175Z,9.30
2019-01-04T12:56:37.691Z,10.07
2019-01-04T12:59:06.181Z,6.03
2019-01-04T13:01:34.902Z,6.17
2019-01-04T13:04:03.400Z,7.53
2019-01-04T13:06:32.185Z,8.30
2019-01-04T13:09:01.446Z,7.30
2019-01-04T13:11:30.030Z,7.13
2019-01-04T13:13:58.665Z,7.00
2019-01-04T13:16:27.230Z,7.60
2019-01-04T13:18:55.763Z,7.00
2019-01-04T13:21:24.263Z,7.60
2019-01-04T13:23:52.833Z,13.77
2019-01-04T13:26:21.376Z,8.27
2019-01-04T13:28:49.911Z,7.90
2019-01-04T13:31:19.156Z,7.00
2019-01-04T13:33:47.669Z,9.50
2019-01-04T13:36:16.306Z,11.30
2019-01-04T13:38:44.791Z,8.63
2019-01-04T13:41:13.312Z,7.43
2019-01-04T13:43:41.908Z,6.67
2019-01-04T13:46:10.537Z,9.93
2019-01-04T13:48:39.643Z,7.63
2019-01-04T13:51:08.142Z,9.03
2019-01-04T13:53:36.775Z,5.13
2019-01-04T13:56:05.612Z,8.67
2019-01-04T13:58:34.211Z,8.37
2019-01-04T14:01:02.697Z,9.10
2019-01-04T14:03:31.182Z,8.77
2019-01-04T14:05:59.744Z,10.17
2019-01-04T14:08:28.272Z,8.03
2019-01-04T14:10:56.856Z,8.23
2019-01-04T14:13:25.350Z,7.43
2019-01-04T14:15:53.913Z,7.57
2019-01-04T14:18:22.507Z,5.23
2019-01-04T14:20:51.058Z,6.90
2019-01-04T14:23:19.587Z,6.87
2019-01-04T14:25:48.246Z,6.83
2019-01-04T14:28:16.860Z,6.60
2019-01-04T14:30:45.465Z,6.30
2019-01-04T14:33:13.970Z,5.93
2019-01-04T14:35:42.460Z,6.60
2019-01-04T14:38:11.035Z,5.60
2019-01-04T14:40:39.538Z,7.63
2019-01-04T14:43:08.046Z,8.37
2019-01-04T14:45:36.513Z,6.27
2019-01-04T14:48:05.041Z,7.63
2019-01-04T14:50:33.519Z,6.83
2019-01-04T14:53:02.023Z,7.53
2019-01-04T14:55:30.647Z,8.80
2019-01-04T14:57:59.170Z,9.37
2019-01-04T15:00:27.642Z,10.13
2019-01-04T15:02:56.132Z,11.33
2019-01-04T15:05:24.685Z,11.90
2019-01-04T15:07:53.310Z,10.93
2019-01-04T15:10:21.822Z,12.40
2019-01-04T15:12:50.319Z,11.93
2019-01-04T15:15:18.946Z,12.87
2019-01-04T15:17:48.401Z,12.73
2019-01-04T15:20:16.997Z,11.67
2019-01-04T15:22:45.730Z,11.97
2019-01-04T15:25:14.219Z,12.47
2019-01-04T15:27:42.815Z,12.57
2019-01-04T15:30:11.491Z,12.13
2019-01-04T15:32:40.005Z,11.60
2019-01-04T15:35:08.520Z,12.67
2019-01-04T15:37:37.120Z,11.80
2019-01-04T15:40:07.443Z,12.87
2019-01-04T15:42:36.069Z,13.60
2019-01-04T15:45:05.891Z,13.03
2019-01-04T15:47:34.545Z,11.73
2019-01-04T15:50:03.655Z,12.40
2019-01-04T15:52:32.424Z,12.30
2019-01-04T15:55:00.942Z,14.87
2019-01-04T15:57:29.521Z,13.07
2019-01-04T15:59:58.033Z,10.73
2019-01-04T16:02:26.522Z,12.10
2019-01-04T16:04:55.087Z,12.50
2019-01-04T16:07:23.661Z,12.87
2019-01-04T16:09:52.155Z,10.93
2019-01-04T16:12:20.691Z,8.93
2019-01-04T16:14:49.191Z,9.93
2019-01-04T16:17:17.730Z,11.33
2019-01-04T16:19:46.225Z,11.47
2019-01-04T16:22:14.775Z,11.10
2019-01-04T16:24:43.299Z,10.03
2019-01-04T16:27:11.925Z,9.43
2019-01-04T16:29:40.454Z,8.90
2019-01-04T16:32:08.926Z,6.93
2019-01-04T16:34:37.440Z,9.03
2019-01-04T16:37:05.940Z,8.03
2019-01-04T16:39:34.566Z,8.63
2019-01-04T16:42:03.065Z,8.00
2019-01-04T16:44:31.660Z,8.83
2019-01-04T16:47:00.385Z,10.07
2019-01-04T16:49:30.542Z,10.93
2019-01-04T16:51:59.058Z,10.93
2019-01-04T16:54:27.578Z,8.60
2019-01-04T16:56:56.174Z,11.00
2019-01-04T16:59:24.687Z,11.30
2019-01-04T17:01:53.205Z,11.50
2019-01-04T17:04:21.729Z,11.97
2019-01-04T17:06:50.375Z,10.93
2019-01-04T17:09:18.900Z,11.60
2019-01-04T17:11:47.537Z,11.50
2019-01-04T17:14:16.132Z,12.87
2019-01-04T17:16:44.646Z,13.07
2019-01-04T17:19:13.327Z,11.93
2019-01-04T17:21:41.842Z,12.70
2019-01-04T17:24:10.393Z,13.70
2019-01-04T17:26:39.059Z,12.33
2019-01-04T17:29:07.656Z,13.00
2019-01-04T17:31:36.141Z,11.93
2019-01-04T17:34:04.722Z,10.13
2019-01-04T17:36:33.235Z,12.30
2019-01-04T17:39:01.734Z,10.73
2019-01-04T17:41:30.250Z,12.30
2019-01-04T17:43:58.797Z,11.93
2019-01-04T17:46:27.326Z,12.63
2019-01-04T17:48:55.832Z,12.07
2019-01-04T17:51:24.421Z,12.23
2019-01-04T17:53:53.042Z,13.83
2019-01-04T17:56:21.535Z,10.67
2019-01-04T17:58:50.161Z,12.70
2019-01-04T18:01:18.745Z,15.73
2019-01-04T18:03:47.269Z,12.17
2019-01-04T18:06:15.866Z,16.90
2019-01-04T18:08:44.471Z,16.63
2019-01-04T18:11:13.126Z,14.70
2019-01-04T18:13:41.642Z,15.43
2019-01-04T18:16:10.246Z,14.00
2019-01-04T18:18:38.866Z,11.97
2019-01-04T18:21:07.461Z,13.83
2019-01-04T18:23:35.958Z,13.83
2019-01-04T18:26:04.491Z,15.70
2019-01-04T18:28:32.998Z,17.33
2019-01-04T18:31:01.538Z,15.43
2019-01-04T18:33:30.035Z,16.63
2019-01-04T18:35:58.536Z,14.60
2019-01-04T18:38:27.103Z,17.43
2019-01-04T18:40:57.024Z,16.03
2019-01-04T18:43:25.690Z,14.47
2019-01-04T18:45:54.205Z,14.50
2019-01-04T18:48:22.785Z,14.40
2019-01-04T18:50:51.645Z,17.17
2019-01-04T18:53:20.205Z,19.50
2019-01-04T18:55:48.737Z,14.20
2019-01-04T18:58:17.227Z,15.33
2019-01-04T19:00:45.809Z,15.07
2019-01-04T19:03:14.305Z,14.40
2019-01-04T19:05:42.796Z,13.60
2019-01-04T19:08:11.313Z,15.23
2019-01-04T19:10:39.827Z,15.17
2019-01-04T19:13:08.336Z,15.10
2019-01-04T19:15:36.907Z,15.17
2019-01-04T19:18:05.450Z,16.80
2019-01-04T19:20:33.938Z,17.43
2019-01-04T19:23:02.430Z,14.97
2019-01-04T19:25:31.857Z,15.07
2019-01-04T19:28:00.380Z,14.80
2019-01-04T19:30:28.864Z,14.40
2019-01-04T19:32:57.399Z,14.77
2019-01-04T19:35:25.926Z,14.13
2019-01-04T19:37:54.529Z,12.70
2019-01-04T19:40:23.122Z,13.10
2019-01-04T19:42:51.666Z,13.20
2019-01-04T19:45:20.295Z,12.07
2019-01-04T19:47:48.785Z,12.13
2019-01-04T19:50:19.638Z,11.87
2019-01-04T19:52:48.281Z,11.70
2019-01-04T19:55:16.825Z,10.73
2019-01-04T19:57:45.388Z,10.70
2019-01-04T20:00:13.981Z,10.83
2019-01-04T20:02:42.511Z,12.00
2019-01-04T20:05:12.997Z,11.37
2019-01-04T20:07:55.082Z,10.70
2019-01-04T20:11:00.600Z,11.13
2019-01-04T20:13:49.651Z,10.20
2019-01-04T20:16:34.342Z,11.03
2019-01-04T20:19:19.621Z,11.23
2019-01-04T20:21:49.697Z,11.63
2019-01-04T20:24:28.889Z,13.03
2019-01-04T20:27:15.203Z,10.83
2019-01-04T20:29:45.373Z,11.10
2019-01-04T20:32:21.174Z,11.43
2019-01-04T20:35:09.039Z,11.70
2019-01-04T20:37:54.936Z,11.67
2019-01-04T20:40:30.536Z,11.60
2019-01-04T20:43:06.419Z,11.13
2019-01-04T20:45:36.608Z,10.43
2019-01-04T20:48:09.115Z,12.87
2019-01-04T20:50:45.279Z,12.93
2019-01-04T20:53:24.180Z,15.00
2019-01-04T20:55:56.707Z,11.60
2019-01-04T20:58:42.629Z,12.47
2019-01-04T21:01:18.273Z,12.50
2019-01-04T21:03:53.902Z,10.80
2019-01-04T21:06:24.056Z,11.20
2019-01-04T21:08:54.217Z,11.90
2019-01-04T21:11:24.456Z,12.03
2019-01-04T21:13:54.521Z,11.97
2019-01-04T21:16:24.586Z,12.20
2019-01-04T21:19:03.736Z,11.53
2019-01-04T21:21:36.237Z,12.77
2019-01-04T21:24:08.977Z,12.30
2019-01-04T21:26:39.051Z,13.23
2019-01-04T21:29:11.792Z,11.57
2019-01-04T21:31:56.608Z,13.90
2019-01-04T21:34:32.185Z,14.17
2019-01-04T21:37:10.797Z,12.83
2019-01-04T21:39:56.926Z,12.80
2019-01-04T21:42:41.712Z,13.40
2019-01-04T21:45:17.501Z,12.60
2019-01-04T21:47:50.347Z,11.87
2019-01-04T21:50:35.158Z,11.73
2019-01-04T21:53:05.228Z,11.00
2019-01-04T21:55:40.870Z,12.33
2019-01-04T21:58:16.463Z,10.97
2019-01-04T22:00:55.071Z,10.10
2019-01-04T22:03:27.880Z,10.07
2019-01-04T22:06:12.681Z,9.73
2019-01-04T22:08:42.795Z,8.60
2019-01-04T22:11:15.776Z,8.77
2019-01-04T22:14:01.786Z,9.73
2019-01-04T22:16:40.576Z,8.97
2019-01-04T22:19:10.652Z,8.10
2019-01-04T22:21:43.521Z,8.40
2019-01-04T22:24:16.129Z,7.80
2019-01-04T22:26:48.825Z,6.60
2019-01-04T22:29:36.955Z,5.43
2019-01-04T22:32:18.742Z,5.90
2019-01-04T22:35:04.606Z,6.03
2019-01-04T22:37:34.675Z,6.50
2019-01-04T22:40:16.757Z,6.80
2019-01-04T22:42:46.843Z,6.87
2019-01-04T22:45:16.906Z,7.00
2019-01-04T22:47:52.547Z,7.37
2019-01-04T22:50:22.622Z,8.90
2019-01-04T22:52:52.681Z,8.87
2019-01-04T22:55:25.396Z,10.63
2019-01-04T22:58:11.294Z,10.87
2019-01-04T23:00:56.006Z,9.83
2019-01-04T23:03:26.097Z,10.33
2019-01-04T23:06:01.990Z,10.73
2019-01-04T23:08:37.861Z,11.07
2019-01-04T23:11:16.701Z,11.50
2019-01-04T23:13:58.530Z,12.90
2019-01-04T23:16:44.847Z,11.00
2019-01-04T23:19:26.615Z,10.60
2019-01-04T23:22:16.527Z,11.60
2019-01-04T23:24:55.306Z,9.90
2019-01-04T23:27:37.432Z,10.37
2019-01-04T23:30:13.311Z,10.30
2019-01-04T23:32:51.905Z,9.70
2019-01-04T23:35:37.866Z,10.10
2019-01-04T23:38:24.047Z,9.90
2019-01-04T23:41:05.971Z,8.63
2019-01-04T23:43:52.167Z,8.50
2019-01-04T23:46:40.077Z,8.07
2019-01-04T23:49:15.882Z,7.67
2019-01-04T23:51:48.715Z,9.00
2019-01-04T23:54:24.557Z,9.00
2019-01-04T23:57:10.603Z,8.87
2019-01-04T23:59:43.090Z,8.97
